createdAt,value
2023-04-21T00:01:43.807Z,10.38
2023-04-21T00:04:13.566Z,10.38
2023-04-21T00:06:41.587Z,10.17
2023-04-21T00:09:08.805Z,10.22
2023-04-21T00:11:35.575Z,10.35
2023-04-21T00:14:01.995Z,10.44
2023-04-21T00:16:28.483Z,10.24
2023-04-21T00:18:54.873Z,10.30
2023-04-21T00:21:21.263Z,10.14
2023-04-21T00:23:47.693Z,10.15
2023-04-21T00:26:14.102Z,9.95
2023-04-21T00:28:40.455Z,10.03
2023-04-21T00:31:06.916Z,10.07
2023-04-21T00:33:33.347Z,10.09
2023-04-21T00:35:59.885Z,10.08
2023-04-21T00:38:26.245Z,10.00
2023-04-21T00:40:52.636Z,9.85
2023-04-21T00:43:19.074Z,9.77
2023-04-21T00:45:47.013Z,9.65
2023-04-21T00:48:13.450Z,9.92
2023-04-21T00:50:39.944Z,9.97
2023-04-21T00:53:06.685Z,9.82
2023-04-21T00:55:33.156Z,9.87
2023-04-21T00:58:00.883Z,9.87
2023-04-21T01:00:27.400Z,9.83
2023-04-21T01:02:54.029Z,9.86
2023-04-21T01:05:20.771Z,9.75
2023-04-21T01:07:47.326Z,9.77
2023-04-21T01:10:13.835Z,9.77
2023-04-21T01:12:47.478Z,9.81
2023-04-21T01:15:17.283Z,9.78
2023-04-21T01:17:44.126Z,9.73
2023-04-21T01:20:13.388Z,9.66
2023-04-21T01:22:47.786Z,9.61
2023-04-21T01:25:14.208Z,9.73
2023-04-21T01:27:40.649Z,9.64
2023-04-21T01:30:07.656Z,9.63
2023-04-21T01:32:34.320Z,9.65
2023-04-21T01:35:00.994Z,9.65
2023-04-21T01:37:30.086Z,9.70
2023-04-21T01:39:58.998Z,9.65
2023-04-21T01:42:28.108Z,9.63
2023-04-21T01:44:54.847Z,9.56
2023-04-21T01:47:22.426Z,9.51
2023-04-21T01:49:48.802Z,9.41
2023-04-21T01:52:15.249Z,9.30
2023-04-21T01:54:41.722Z,9.52
2023-04-21T01:57:08.197Z,9.50
2023-04-21T01:59:34.685Z,9.44
2023-04-21T02:02:01.169Z,9.49
2023-04-21T02:04:27.729Z,9.52
2023-04-21T02:06:54.261Z,9.59
2023-04-21T02:09:21.151Z,9.48
2023-04-21T02:11:47.723Z,9.43
2023-04-21T02:14:14.137Z,9.52
2023-04-21T02:16:40.595Z,9.52
2023-04-21T02:19:07.506Z,9.46
2023-04-21T02:21:34.017Z,9.43
2023-04-21T02:24:00.400Z,9.39
2023-04-21T02:26:26.896Z,9.46
2023-04-21T02:28:53.360Z,9.43
2023-04-21T02:31:19.833Z,9.42
2023-04-21T02:33:46.284Z,9.12
2023-04-21T02:36:12.867Z,9.38
2023-04-21T02:38:39.593Z,9.33
2023-04-21T02:41:05.952Z,9.29
2023-04-21T02:43:32.323Z,9.16
2023-04-21T02:45:58.751Z,9.21
2023-04-21T02:48:25.341Z,9.18
2023-04-21T02:50:53.323Z,9.20
2023-04-21T02:53:20.650Z,9.22
2023-04-21T02:55:47.121Z,9.13
2023-04-21T02:58:13.645Z,9.12
2023-04-21T03:00:40.137Z,9.13
2023-04-21T03:03:06.668Z,9.09
2023-04-21T03:05:33.195Z,9.09
2023-04-21T03:07:59.635Z,9.10
2023-04-21T03:10:26.189Z,9.08
2023-04-21T03:12:53.489Z,8.91
2023-04-21T03:15:20.022Z,8.86
2023-04-21T03:17:46.453Z,9.02
2023-04-21T03:20:13.101Z,8.86
2023-04-21T03:22:39.583Z,9.00
2023-04-21T03:25:07.173Z,9.07
2023-04-21T03:27:34.450Z,9.19
2023-04-21T03:30:00.824Z,9.00
2023-04-21T03:32:27.370Z,9.04
2023-04-21T03:34:54.001Z,8.93
2023-04-21T03:37:20.382Z,9.07
2023-04-21T03:39:46.748Z,9.06
2023-04-21T03:42:13.306Z,9.08
2023-04-21T03:44:39.660Z,9.04
2023-04-21T03:47:06.031Z,9.12
2023-04-21T03:49:34.695Z,9.05
2023-04-21T03:52:01.045Z,9.04
2023-04-21T03:54:27.399Z,9.18
2023-04-21T03:56:54.255Z,9.19
2023-04-21T03:59:20.988Z,9.20
2023-04-21T04:01:47.546Z,9.26
2023-04-21T04:04:14.374Z,9.03
2023-04-21T04:06:40.928Z,9.13
2023-04-21T04:09:08.873Z,9.10
2023-04-21T04:11:35.241Z,9.13
2023-04-21T04:14:01.596Z,9.05
2023-04-21T04:16:28.964Z,9.11
2023-04-21T04:18:55.780Z,8.91
2023-04-21T04:21:22.237Z,9.17
2023-04-21T04:23:52.268Z,9.14
2023-04-21T04:26:19.072Z,9.15
2023-04-21T04:28:45.966Z,9.15
2023-04-21T04:31:13.650Z,9.20
2023-04-21T04:33:43.989Z,9.30
2023-04-21T04:36:11.916Z,9.36
2023-04-21T04:38:38.491Z,9.32
2023-04-21T04:41:05.077Z,9.36
2023-04-21T04:43:36.856Z,9.31
2023-04-21T04:46:03.622Z,9.40
2023-04-21T04:48:30.149Z,9.50
2023-04-21T04:50:56.598Z,9.52
2023-04-21T04:53:23.065Z,9.59
2023-04-21T04:55:49.447Z,9.82
2023-04-21T04:58:15.864Z,9.90
2023-04-21T05:00:42.260Z,9.83
2023-04-21T05:03:09.179Z,10.03
2023-04-21T05:05:35.578Z,9.81
2023-04-21T05:08:02.008Z,9.84
2023-04-21T05:10:28.386Z,9.85
2023-04-21T05:12:54.783Z,9.94
2023-04-21T05:15:22.503Z,10.19
2023-04-21T05:17:49.061Z,10.45
2023-04-21T05:20:15.517Z,10.56
2023-04-21T05:22:41.913Z,10.54
2023-04-21T05:25:11.047Z,10.64
2023-04-21T05:27:37.390Z,10.69
2023-04-21T05:30:04.113Z,10.56
2023-04-21T05:32:30.675Z,10.82
2023-04-21T05:34:57.075Z,10.85
2023-04-21T05:37:23.437Z,10.90
2023-04-21T05:39:49.867Z,11.25
2023-04-21T05:42:18.164Z,11.74
2023-04-21T05:44:44.657Z,12.04
2023-04-21T05:47:11.116Z,12.35
2023-04-21T05:49:37.460Z,12.23
2023-04-21T05:52:03.979Z,12.71
2023-04-21T05:54:30.445Z,12.20
2023-04-21T05:56:56.924Z,12.13
2023-04-21T05:59:23.339Z,12.34
2023-04-21T06:01:49.914Z,12.80
2023-04-21T06:04:16.569Z,12.95
2023-04-21T06:06:44.272Z,12.99
2023-04-21T06:09:10.827Z,13.63
2023-04-21T06:11:37.224Z,13.38
2023-04-21T06:14:03.606Z,13.94
2023-04-21T06:16:32.460Z,13.66
2023-04-21T06:18:59.092Z,13.51
2023-04-21T06:21:25.650Z,14.07
2023-04-21T06:23:52.163Z,13.83
2023-04-21T06:26:18.564Z,13.29
2023-04-21T06:28:44.930Z,13.92
2023-04-21T06:31:15.297Z,14.38
2023-04-21T06:33:42.186Z,14.31
2023-04-21T06:36:08.648Z,14.46
2023-04-21T06:38:35.138Z,14.58
2023-04-21T06:41:02.383Z,14.38
2023-04-21T06:43:28.762Z,14.74
2023-04-21T06:45:55.235Z,14.31
2023-04-21T06:48:21.815Z,14.85
2023-04-21T06:50:48.278Z,14.67
2023-04-21T06:53:14.681Z,14.84
2023-04-21T06:55:42.159Z,15.15
2023-04-21T06:58:08.696Z,15.96
2023-04-21T07:00:35.385Z,15.99
2023-04-21T07:03:01.868Z,15.37
2023-04-21T07:05:28.927Z,15.39
2023-04-21T07:07:59.624Z,15.68
2023-04-21T07:10:26.926Z,15.01
2023-04-21T07:12:53.970Z,15.52
2023-04-21T07:15:20.813Z,15.25
2023-04-21T07:17:47.312Z,15.08
2023-04-21T07:20:13.868Z,15.05
2023-04-21T07:22:40.407Z,14.97
2023-04-21T07:25:07.422Z,15.49
2023-04-21T07:27:35.948Z,15.26
2023-04-21T07:30:03.660Z,15.52
2023-04-21T07:32:30.115Z,15.73
2023-04-21T07:34:56.633Z,16.18
2023-04-21T07:37:24.573Z,16.25
2023-04-21T07:39:51.296Z,15.66
2023-04-21T07:42:17.668Z,16.21
2023-04-21T07:44:44.109Z,15.64
2023-04-21T07:47:10.663Z,16.08
2023-04-21T07:49:37.029Z,16.50
2023-04-21T07:52:03.517Z,15.86
2023-04-21T07:54:31.585Z,16.03
2023-04-21T07:56:58.296Z,16.47
2023-04-21T07:59:24.709Z,16.67
2023-04-21T08:01:51.769Z,17.87
2023-04-21T08:04:18.464Z,17.47
2023-04-21T08:06:45.316Z,17.47
2023-04-21T08:09:12.038Z,16.93
2023-04-21T08:11:38.440Z,16.87
2023-04-21T08:14:04.893Z,17.28
2023-04-21T08:16:31.536Z,17.78
2023-04-21T08:18:58.033Z,16.65
2023-04-21T08:21:24.552Z,16.98
2023-04-21T08:23:51.071Z,17.16
2023-04-21T08:26:18.909Z,16.54
2023-04-21T08:28:45.506Z,16.83
2023-04-21T08:31:11.922Z,17.68
2023-04-21T08:33:46.687Z,17.76
2023-04-21T08:36:29.002Z,17.84
2023-04-21T08:38:56.470Z,17.73
2023-04-21T08:41:23.099Z,17.79
2023-04-21T08:43:49.498Z,18.19
2023-04-21T08:46:16.257Z,18.59
2023-04-21T08:48:42.707Z,18.93
2023-04-21T08:51:09.965Z,18.09
2023-04-21T08:53:37.249Z,18.20
2023-04-21T08:56:11.175Z,18.64
2023-04-21T08:58:38.512Z,18.80
2023-04-21T09:01:05.344Z,19.33
2023-04-21T09:03:32.032Z,18.82
2023-04-21T09:05:59.888Z,19.27
2023-04-21T09:08:28.472Z,19.68
2023-04-21T09:10:55.298Z,19.18
2023-04-21T09:13:29.460Z,19.46
2023-04-21T09:15:55.862Z,19.50
2023-04-21T09:18:24.554Z,19.64
2023-04-21T09:21:06.091Z,19.15
2023-04-21T09:23:39.766Z,19.50
2023-04-21T09:26:07.226Z,19.42
2023-04-21T09:28:33.634Z,19.58
2023-04-21T09:31:00.016Z,19.65
2023-04-21T09:33:30.917Z,19.75
2023-04-21T09:36:02.027Z,19.91
2023-04-21T09:38:28.455Z,20.29
2023-04-21T09:40:59.093Z,19.68
2023-04-21T09:43:26.114Z,20.31
2023-04-21T09:45:54.380Z,19.47
2023-04-21T09:48:24.369Z,20.71
2023-04-21T09:51:24.263Z,20.18
2023-04-21T09:53:41.101Z,20.09
2023-04-21T09:56:20.876Z,20.41
2023-04-21T09:58:51.973Z,20.50
2023-04-21T10:01:19.802Z,20.36
2023-04-21T10:03:48.926Z,20.75
2023-04-21T10:06:15.925Z,21.44
2023-04-21T10:08:43.704Z,21.44
2023-04-21T10:11:10.609Z,21.38
2023-04-21T10:13:38.025Z,21.28
2023-04-21T10:16:07.787Z,21.04
2023-04-21T10:18:38.916Z,21.09
2023-04-21T10:21:08.695Z,21.31
2023-04-21T10:23:46.346Z,20.89
2023-04-21T10:26:27.188Z,20.94
2023-04-21T10:28:57.809Z,20.83
2023-04-21T10:31:29.682Z,21.43
2023-04-21T10:34:08.230Z,21.21
2023-04-21T10:36:50.160Z,22.16
2023-04-21T10:39:36.169Z,22.35
2023-04-21T10:42:23.021Z,23.08
2023-04-21T10:44:53.681Z,22.25
2023-04-21T10:47:29.422Z,21.91
2023-04-21T10:49:58.025Z,22.06
2023-04-21T10:52:33.826Z,23.01
2023-04-21T10:55:00.320Z,22.49
2023-04-21T10:57:32.037Z,22.01
2023-04-21T10:59:59.144Z,22.61
2023-04-21T11:02:25.972Z,22.78
2023-04-21T11:04:53.859Z,22.32
2023-04-21T11:07:23.114Z,22.23
2023-04-21T11:10:00.811Z,22.26
2023-04-21T11:12:32.246Z,22.31
2023-04-21T11:14:58.873Z,22.62
2023-04-21T11:17:25.963Z,22.65
2023-04-21T11:19:54.548Z,22.69
2023-04-21T11:22:23.420Z,22.74
2023-04-21T11:24:53.045Z,22.37
2023-04-21T11:27:19.456Z,22.88
2023-04-21T11:29:49.193Z,22.61
2023-04-21T11:32:16.646Z,23.02
2023-04-21T11:34:43.568Z,22.41
2023-04-21T11:37:14.928Z,22.51
2023-04-21T11:39:42.096Z,23.36
2023-04-21T11:42:08.530Z,23.01
2023-04-21T11:44:36.018Z,22.64
2023-04-21T11:47:20.132Z,23.37
2023-04-21T11:49:54.674Z,22.16
2023-04-21T11:52:21.874Z,23.13
2023-04-21T11:54:48.827Z,22.44
2023-04-21T11:57:19.098Z,23.34
2023-04-21T11:59:47.410Z,22.64
2023-04-21T12:02:22.942Z,22.64
2023-04-21T12:05:06.193Z,22.60
2023-04-21T12:07:34.829Z,22.59
2023-04-21T12:10:03.032Z,23.36
2023-04-21T12:12:29.657Z,22.94
2023-04-21T12:14:56.066Z,21.92
2023-04-21T12:17:22.669Z,21.26
2023-04-21T12:19:49.235Z,21.60
2023-04-21T12:22:23.183Z,21.50
2023-04-21T12:24:49.612Z,22.19
2023-04-21T12:27:16.038Z,22.84
2023-04-21T12:29:42.617Z,22.42
2023-04-21T12:32:10.011Z,22.61
2023-04-21T12:34:36.759Z,23.16
2023-04-21T12:37:03.843Z,23.38
2023-04-21T12:39:30.766Z,23.38
2023-04-21T12:41:57.900Z,22.89
2023-04-21T12:44:24.708Z,23.11
2023-04-21T12:46:51.548Z,24.07
2023-04-21T12:49:18.590Z,23.57
2023-04-21T12:51:45.163Z,24.19
2023-04-21T12:54:12.495Z,23.93
2023-04-21T12:56:42.730Z,23.32
2023-04-21T12:59:10.619Z,22.82
2023-04-21T13:01:38.135Z,23.01
2023-04-21T13:04:05.212Z,22.46
2023-04-21T13:06:33.138Z,22.23
2023-04-21T13:09:00.148Z,22.24
2023-04-21T13:11:26.522Z,21.81
2023-04-21T13:13:52.935Z,21.80
2023-04-21T13:16:19.418Z,23.10
2023-04-21T13:18:47.170Z,22.71
2023-04-21T13:21:14.229Z,22.82
2023-04-21T13:23:40.848Z,23.19
2023-04-21T13:26:08.266Z,23.12
2023-04-21T13:28:34.963Z,22.02
2023-04-21T13:31:01.568Z,22.46
2023-04-21T13:33:28.114Z,23.32
2023-04-21T13:35:54.521Z,22.86
2023-04-21T13:38:21.177Z,22.52
2023-04-21T13:40:48.900Z,21.91
2023-04-21T13:43:15.541Z,21.73
2023-04-21T13:45:42.211Z,21.85
2023-04-21T13:48:08.642Z,21.63
2023-04-21T13:50:35.221Z,21.45
2023-04-21T13:53:02.035Z,21.43
2023-04-21T13:55:28.428Z,21.67
2023-04-21T13:57:54.872Z,22.13
2023-04-21T14:00:22.061Z,22.43
2023-04-21T14:02:49.234Z,22.04
2023-04-21T14:05:16.189Z,21.72
2023-04-21T14:07:43.873Z,22.42
2023-04-21T14:10:12.322Z,22.80
2023-04-21T14:12:39.939Z,22.94
2023-04-21T14:15:07.008Z,22.48
2023-04-21T14:17:33.445Z,23.63
2023-04-21T14:20:00.212Z,23.18
2023-04-21T14:22:28.127Z,23.49
2023-04-21T14:24:54.493Z,23.54
2023-04-21T14:27:21.354Z,23.87
2023-04-21T14:29:47.820Z,24.09
2023-04-21T14:32:14.318Z,23.63
2023-04-21T14:34:40.811Z,23.34
2023-04-21T14:37:07.195Z,23.39
2023-04-21T14:39:33.826Z,23.39
2023-04-21T14:42:01.750Z,23.33
2023-04-21T14:44:28.364Z,24.06
2023-04-21T14:47:08.261Z,23.91
2023-04-21T14:49:36.693Z,23.91
2023-04-21T14:52:04.184Z,23.84
2023-04-21T14:54:30.641Z,23.02
2023-04-21T14:57:10.424Z,22.35
2023-04-21T14:59:46.492Z,22.96
2023-04-21T15:02:13.555Z,21.92
2023-04-21T15:04:40.262Z,22.18
2023-04-21T15:07:07.020Z,21.93
2023-04-21T15:09:34.022Z,22.64
2023-04-21T15:12:00.648Z,23.08
2023-04-21T15:14:27.126Z,22.80
2023-04-21T15:16:53.602Z,22.98
2023-04-21T15:19:20.039Z,23.26
2023-04-21T15:21:46.424Z,23.08
2023-04-21T15:24:12.958Z,22.70
2023-04-21T15:26:40.245Z,22.67
2023-04-21T15:29:06.933Z,21.55
2023-04-21T15:31:33.723Z,22.04
2023-04-21T15:34:00.151Z,21.73
2023-04-21T15:36:27.452Z,21.55
2023-04-21T15:38:53.927Z,22.35
2023-04-21T15:41:20.366Z,22.27
2023-04-21T15:43:47.662Z,22.91
2023-04-21T15:46:14.211Z,22.03
2023-04-21T15:48:41.185Z,22.15
2023-04-21T15:51:08.995Z,22.31
2023-04-21T15:53:37.491Z,22.23
2023-04-21T15:56:07.364Z,22.40
2023-04-21T15:58:33.721Z,22.14
2023-04-21T16:01:00.180Z,22.40
2023-04-21T16:03:26.935Z,22.36
2023-04-21T16:05:53.778Z,22.43
2023-04-21T16:08:20.642Z,22.15
2023-04-21T16:10:47.257Z,22.26
2023-04-21T16:13:13.722Z,22.28
2023-04-21T16:15:40.524Z,22.45
2023-04-21T16:18:07.223Z,22.35
2023-04-21T16:20:34.133Z,22.05
2023-04-21T16:23:00.819Z,21.82
2023-04-21T16:25:27.403Z,21.94
2023-04-21T16:27:53.804Z,22.05
2023-04-21T16:30:20.266Z,22.01
2023-04-21T16:32:46.660Z,21.82
2023-04-21T16:35:13.094Z,21.71
2023-04-21T16:37:40.571Z,21.49
2023-04-21T16:40:08.916Z,21.11
2023-04-21T16:42:36.172Z,21.30
2023-04-21T16:45:05.872Z,21.44
2023-04-21T16:47:37.922Z,21.69
2023-04-21T16:50:08.157Z,21.38
2023-04-21T16:52:35.052Z,21.49
2023-04-21T16:55:01.470Z,21.30
2023-04-21T16:57:29.279Z,21.05
2023-04-21T16:59:55.818Z,20.79
2023-04-21T17:02:22.334Z,20.83
2023-04-21T17:04:48.868Z,20.75
2023-04-21T17:07:15.872Z,20.55
2023-04-21T17:09:42.230Z,20.57
2023-04-21T17:12:09.430Z,20.55
2023-04-21T17:14:36.108Z,20.61
2023-04-21T17:17:02.784Z,20.58
2023-04-21T17:19:29.337Z,20.39
2023-04-21T17:21:55.853Z,20.33
2023-04-21T17:24:22.270Z,20.39
2023-04-21T17:26:48.763Z,20.31
2023-04-21T17:29:15.237Z,20.26
2023-04-21T17:31:41.674Z,20.18
2023-04-21T17:34:08.185Z,20.05
2023-04-21T17:36:34.672Z,19.88
2023-04-21T17:39:01.062Z,19.82
2023-04-21T17:41:27.656Z,19.54
2023-04-21T17:43:57.017Z,19.71
2023-04-21T17:46:25.385Z,19.55
2023-04-21T17:48:52.177Z,19.56
2023-04-21T17:51:19.308Z,19.53
2023-04-21T17:53:49.101Z,19.36
2023-04-21T17:56:15.841Z,19.35
2023-04-21T17:58:42.366Z,19.28
2023-04-21T18:01:08.814Z,19.15
2023-04-21T18:03:41.315Z,19.08
2023-04-21T18:06:09.802Z,19.04
2023-04-21T18:08:37.081Z,19.05
2023-04-21T18:11:03.549Z,19.12
2023-04-21T18:13:29.903Z,19.02
2023-04-21T18:15:57.597Z,19.07
2023-04-21T18:18:24.083Z,19.06
2023-04-21T18:20:50.547Z,18.82
2023-04-21T18:23:16.941Z,18.92
2023-04-21T18:25:43.475Z,18.83
2023-04-21T18:28:11.392Z,18.85
2023-04-21T18:30:39.028Z,18.58
2023-04-21T18:33:06.002Z,18.80
2023-04-21T18:35:33.820Z,18.72
2023-04-21T18:38:00.643Z,18.52
2023-04-21T18:40:27.168Z,18.48
2023-04-21T18:42:53.642Z,18.36
2023-04-21T18:45:20.052Z,18.40
2023-04-21T18:47:46.834Z,18.25
2023-04-21T18:50:13.300Z,18.14
2023-04-21T18:52:39.838Z,17.95
2023-04-21T18:55:06.437Z,17.99
2023-04-21T18:57:32.922Z,18.02
2023-04-21T19:00:00.229Z,17.92
2023-04-21T19:02:28.538Z,17.80
2023-04-21T19:04:55.176Z,17.76
2023-04-21T19:07:21.951Z,17.70
2023-04-21T19:09:48.676Z,17.61
2023-04-21T19:12:15.958Z,17.57
2023-04-21T19:14:47.086Z,17.53
2023-04-21T19:17:14.625Z,17.35
2023-04-21T19:19:41.853Z,17.16
2023-04-21T19:22:08.412Z,17.38
2023-04-21T19:24:35.108Z,17.54
2023-04-21T19:27:02.441Z,17.30
2023-04-21T19:29:28.815Z,17.29
2023-04-21T19:31:55.290Z,17.34
2023-04-21T19:34:22.217Z,17.07
2023-04-21T19:36:49.109Z,17.29
2023-04-21T19:39:15.704Z,17.15
2023-04-21T19:41:42.091Z,17.16
2023-04-21T19:44:08.545Z,17.09
2023-04-21T19:46:35.163Z,17.15
2023-04-21T19:49:01.591Z,17.03
2023-04-21T19:51:28.032Z,17.01
2023-04-21T19:54:10.008Z,17.00
2023-04-21T19:56:38.049Z,17.11
2023-04-21T19:59:05.481Z,16.90
2023-04-21T20:01:32.912Z,16.99
2023-04-21T20:04:00.200Z,17.07
2023-04-21T20:06:27.174Z,17.16
2023-04-21T20:08:53.614Z,17.07
2023-04-21T20:11:20.978Z,16.97
2023-04-21T20:13:47.741Z,16.92
2023-04-21T20:16:14.215Z,17.00
2023-04-21T20:18:40.651Z,16.97
2023-04-21T20:21:07.062Z,16.97
2023-04-21T20:23:33.475Z,16.94
2023-04-21T20:26:00.985Z,16.82
2023-04-21T20:28:27.630Z,16.91
2023-04-21T20:30:56.189Z,16.75
2023-04-21T20:33:22.735Z,16.65
2023-04-21T20:35:49.804Z,16.67
2023-04-21T20:38:16.396Z,16.57
2023-04-21T20:40:43.007Z,16.29
2023-04-21T20:43:10.328Z,16.50
2023-04-21T20:45:37.640Z,16.53
2023-04-21T20:48:04.528Z,16.48
2023-04-21T20:50:31.030Z,16.52
2023-04-21T20:52:58.003Z,16.69
2023-04-21T20:55:24.667Z,16.73
2023-04-21T20:57:51.085Z,16.65
2023-04-21T21:00:17.860Z,16.73
2023-04-21T21:02:44.506Z,16.62
2023-04-21T21:05:11.190Z,16.56
2023-04-21T21:07:37.593Z,16.50
2023-04-21T21:10:04.587Z,16.37
2023-04-21T21:12:31.036Z,16.37
2023-04-21T21:14:57.399Z,16.23
2023-04-21T21:17:23.905Z,16.18
2023-04-21T21:19:50.326Z,16.40
2023-04-21T21:22:16.802Z,16.00
2023-04-21T21:24:43.157Z,15.91
2023-04-21T21:27:09.612Z,15.60
2023-04-21T21:29:36.266Z,15.80
2023-04-21T21:32:03.106Z,15.74
2023-04-21T21:34:29.506Z,15.61
2023-04-21T21:36:55.890Z,15.78
2023-04-21T21:39:22.261Z,15.60
2023-04-21T21:41:48.614Z,15.57
2023-04-21T21:44:14.986Z,15.44
2023-04-21T21:46:41.710Z,15.52
2023-04-21T21:49:08.395Z,15.55
2023-04-21T21:51:34.732Z,15.61
2023-04-21T21:54:01.098Z,15.51
2023-04-21T21:56:27.550Z,15.57
2023-04-21T21:58:54.479Z,15.65
2023-04-21T22:01:20.983Z,15.68
2023-04-21T22:03:47.574Z,15.78
2023-04-21T22:06:16.740Z,15.79
2023-04-21T22:08:43.641Z,15.70
2023-04-21T22:11:10.328Z,15.80
2023-04-21T22:13:36.709Z,15.83
2023-04-21T22:16:03.108Z,15.68
2023-04-21T22:18:30.017Z,15.63
2023-04-21T22:20:56.467Z,15.49
2023-04-21T22:23:22.908Z,15.33
2023-04-21T22:25:49.505Z,15.34
2023-04-21T22:28:15.910Z,15.38
2023-04-21T22:30:42.780Z,15.34
2023-04-21T22:33:11.511Z,15.06
2023-04-21T22:35:37.882Z,15.08
2023-04-21T22:38:04.327Z,15.11
2023-04-21T22:40:30.753Z,14.87
2023-04-21T22:42:57.159Z,14.84
2023-04-21T22:45:23.522Z,14.93
2023-04-21T22:47:49.980Z,15.04
2023-04-21T22:50:16.444Z,15.06
2023-04-21T22:52:42.924Z,15.06
2023-04-21T22:55:09.858Z,14.99
2023-04-21T22:57:37.589Z,14.74
2023-04-21T23:00:06.361Z,14.55
2023-04-21T23:02:33.099Z,14.33
2023-04-21T23:04:59.534Z,14.39
2023-04-21T23:07:26.021Z,14.25
2023-04-21T23:09:52.442Z,13.92
2023-04-21T23:12:18.882Z,13.90
2023-04-21T23:14:45.283Z,13.96
2023-04-21T23:17:11.683Z,14.08
2023-04-21T23:19:38.289Z,14.12
2023-04-21T23:22:05.043Z,13.97
2023-04-21T23:24:31.469Z,14.03
2023-04-21T23:26:57.930Z,14.06
2023-04-21T23:29:24.398Z,14.00
2023-04-21T23:31:50.916Z,13.92
2023-04-21T23:34:17.340Z,13.91
2023-04-21T23:36:43.691Z,13.95
2023-04-21T23:39:11.115Z,13.98
2023-04-21T23:41:37.768Z,14.05
2023-04-21T23:44:05.477Z,13.91
2023-04-21T23:46:31.951Z,13.92
2023-04-21T23:48:58.445Z,13.61
2023-04-21T23:51:24.974Z,13.49
2023-04-21T23:53:51.472Z,13.56
2023-04-21T23:56:18.400Z,13.30
2023-04-21T23:58:44.799Z,13.18
